Time;durP1;ratioP1;P1;durP2;ratioP2;P2;SDS_P1;SDS_P2;PMS_P1;PMS_P2;Temp;Humidity;BMP_temperature;BMP_pressure;BME280_temperature;BME280_humidity;BME280_pressure;Samples;Min_cycle;Max_cycle;Signal;HPM_P1;HPM_P2
2023/02/27 00:01:45;;;;;;;4.22;2.30;;;-3.40;1.00;;;;;;6056962;23;20106;-83
2023/02/27 00:04:32;;;;;;;5.65;2.72;;;-3.50;1.00;;;;;;6055722;23;20050;-83
2023/02/27 00:07:24;;;;;;;2.85;2.40;;;-3.40;1.00;;;;;;6053559;23;20038;-85
2023/02/27 00:10:14;;;;;;;4.20;2.28;;;-3.50;1.00;;;;;;6084852;23;20022;-83
2023/02/27 00:13:11;;;;;;;3.08;2.33;;;-3.50;1.00;;;;;;6151358;22;20017;-80
2023/02/27 00:16:01;;;;;;;3.92;2.28;;;-3.50;1.00;;;;;;6134174;23;20013;-83
2023/02/27 00:18:52;;;;;;;3.80;2.50;;;-3.40;1.00;;;;;;6152766;23;20052;-84
2023/02/27 00:21:40;;;;;;;4.90;2.40;;;-3.30;1.00;;;;;;6154496;22;20081;-85
2023/02/27 00:24:27;;;;;;;3.92;2.30;;;-3.20;1.00;;;;;;6167954;23;20025;-83
2023/02/27 00:27:15;;;;;;;4.22;2.92;;;-3.30;1.00;;;;;;6172135;22;20053;-85
2023/02/27 00:30:11;;;;;;;4.90;2.80;;;-3.30;1.00;;;;;;6147263;23;20029;-85
2023/02/27 00:33:07;;;;;;;5.18;2.67;;;-3.40;1.00;;;;;;6128569;22;20078;-86
2023/02/27 00:36:03;;;;;;;3.50;2.72;;;-3.50;1.00;;;;;;6164750;23;20022;-85
2023/02/27 00:38:50;;;;;;;4.70;2.45;;;-3.40;1.00;;;;;;6163713;23;20030;-85
2023/02/27 00:41:38;;;;;;;5.22;2.40;;;-3.40;1.00;;;;;;6167303;23;20025;-85
2023/02/27 00:44:29;;;;;;;3.63;2.30;;;-3.40;1.00;;;;;;6148141;23;20040;-84
2023/02/27 00:47:16;;;;;;;4.65;2.47;;;-3.30;1.00;;;;;;6173672;22;20014;-84
2023/02/27 00:50:05;;;;;;;4.38;2.28;;;-3.30;1.00;;;;;;6174671;23;20072;-84
2023/02/27 00:52:52;;;;;;;4.70;2.80;;;-3.30;1.00;;;;;;6165634;23;20029;-83
2023/02/27 00:55:39;;;;;;;4.45;2.28;;;-3.30;1.00;;;;;;6144776;23;20056;-83
2023/02/27 00:58:27;;;;;;;6.05;2.63;;;-3.30;1.00;;;;;;6147191;22;20022;-84
2023/02/27 01:01:14;;;;;;;9.73;2.63;;;-3.20;1.00;;;;;;6147290;23;20021;-84
2023/02/27 01:04:04;;;;;;;2.70;2.50;;;-3.10;1.00;;;;;;6169308;23;20082;-82
2023/02/27 01:06:53;;;;;;;5.30;3.40;;;-3.10;1.00;;;;;;6171115;23;20025;-83
2023/02/27 01:09:41;;;;;;;8.52;2.63;;;-3.10;1.00;;;;;;6146974;23;20374;-86
2023/02/27 01:12:28;;;;;;;3.70;2.78;;;-3.20;1.00;;;;;;6166885;23;20051;-83
2023/02/27 01:15:17;;;;;;;4.00;2.65;;;-3.20;1.00;;;;;;6144055;23;20118;-86
2023/02/27 01:18:04;;;;;;;2.38;2.10;;;-3.20;1.00;;;;;;6166654;22;20094;-84
2023/02/27 01:20:53;;;;;;;4.53;2.53;;;-3.20;1.00;;;;;;6165826;23;20055;-83
2023/02/27 01:23:43;;;;;;;11.25;2.70;;;-3.20;1.00;;;;;;6162523;23;20040;-84
2023/02/27 01:26:30;;;;;;;5.28;3.08;;;-3.30;1.00;;;;;;6146272;23;20025;-84
2023/02/27 01:29:17;;;;;;;4.00;2.95;;;-3.30;1.00;;;;;;6140161;23;20026;-85
2023/02/27 01:32:05;;;;;;;4.10;2.80;;;-3.40;1.00;;;;;;6142734;23;20077;-85
2023/02/27 01:34:52;;;;;;;6.30;2.95;;;-3.40;1.00;;;;;;6143841;23;20049;-83
2023/02/27 01:37:40;;;;;;;7.43;2.58;;;-3.40;1.00;;;;;;6142308;23;20038;-86
2023/02/27 01:40:30;;;;;;;3.45;2.70;;;-3.50;1.00;;;;;;6150342;22;20052;-85
2023/02/27 01:43:22;;;;;;;4.03;2.83;;;-3.50;1.00;;;;;;6141996;23;20101;-87
2023/02/27 01:46:09;;;;;;;5.80;2.90;;;-3.40;1.00;;;;;;6164404;23;20083;-85
2023/02/27 01:49:04;;;;;;;4.95;2.85;;;-3.40;1.00;;;;;;6145721;23;20037;-85
2023/02/27 01:52:02;;;;;;;5.47;2.85;;;-3.50;1.00;;;;;;6142206;22;20048;-86
2023/02/27 01:54:49;;;;;;;6.10;3.00;;;-3.40;1.00;;;;;;6164627;22;20105;-83
2023/02/27 01:57:36;;;;;;;2.95;2.50;;;-3.50;1.00;;;;;;6147158;23;20106;-84
2023/02/27 02:00:26;;;;;;;6.75;3.10;;;-3.50;1.00;;;;;;6167516;23;20031;-84
2023/02/27 02:03:30;;;;;;;3.75;2.83;;;-3.50;1.00;;;;;;6166888;23;20028;-83
2023/02/27 02:06:19;;;;;;;4.15;2.75;;;-3.60;1.00;;;;;;6140342;23;20086;-82
2023/02/27 02:09:08;;;;;;;4.47;3.05;;;-3.60;1.00;;;;;;6163185;23;20424;-86
2023/02/27 02:11:58;;;;;;;3.95;3.00;;;-3.60;1.00;;;;;;6162708;23;20048;-87
2023/02/27 02:14:45;;;;;;;5.15;3.00;;;-3.60;1.00;;;;;;6145461;23;20455;-86
2023/02/27 02:17:48;;;;;;;5.00;3.22;;;-3.60;1.00;;;;;;6166333;23;20053;-84
2023/02/27 02:20:36;;;;;;;7.78;2.78;;;-3.70;1.00;;;;;;6174105;23;20029;-83
2023/02/27 02:24:09;;;;;;;3.40;2.97;;;-3.60;1.00;;;;;;6172062;23;20036;-83
2023/02/27 02:27:17;;;;;;;4.03;2.88;;;-3.70;1.00;;;;;;6147190;23;20354;-84
2023/02/27 02:30:34;;;;;;;3.35;2.70;;;-3.70;11.50;;;;;;6173217;22;20025;-86
2023/02/27 02:33:32;;;;;;;5.65;3.55;;;-3.70;18.80;;;;;;6164988;23;20026;-83
2023/02/27 02:36:58;;;;;;;6.35;3.30;;;-3.70;33.10;;;;;;6143052;23;20021;-84
2023/02/27 02:39:56;;;;;;;4.85;3.22;;;-3.80;42.60;;;;;;6141717;23;20022;-85
2023/02/27 02:43:25;;;;;;;3.90;3.15;;;-3.70;55.10;;;;;;6169949;23;20022;-83
2023/02/27 02:46:45;;;;;;;8.40;4.05;;;-3.70;78.20;;;;;;6165922;22;20021;-82
2023/02/27 02:49:47;;;;;;;6.47;3.60;;;-3.70;92.70;;;;;;6164257;23;20029;-84
2023/02/27 02:53:09;;;;;;;7.70;3.53;;;-3.80;99.90;;;;;;6166498;23;20029;-84
2023/02/27 02:56:05;;;;;;;11.02;4.43;;;-3.80;99.90;;;;;;6143439;23;20029;-85
2023/02/27 02:59:27;;;;;;;6.93;3.80;;;-3.80;99.90;;;;;;6166965;23;20033;-84
2023/02/27 03:02:20;;;;;;;4.43;3.50;;;-3.70;99.90;;;;;;6141546;22;20612;-86
2023/02/27 03:05:19;;;;;;;8.82;4.18;;;-3.70;99.90;;;;;;6144294;23;20036;-83
2023/02/27 03:08:19;;;;;;;6.38;3.72;;;-3.70;99.90;;;;;;6145359;23;20040;-83
2023/02/27 03:11:09;;;;;;;6.90;3.90;;;-3.80;99.90;;;;;;6173938;23;20009;-83
2023/02/27 03:14:05;;;;;;;6.15;4.18;;;-3.80;99.90;;;;;;6151448;23;20064;-83
2023/02/27 03:16:55;;;;;;;8.77;3.90;;;-3.80;99.90;;;;;;6176147;22;20013;-80
2023/02/27 03:19:54;;;;;;;5.63;4.10;;;-3.80;99.90;;;;;;6177288;22;20036;-82
2023/02/27 03:22:46;;;;;;;6.13;3.92;;;-3.80;99.90;;;;;;6154887;23;20052;-85
2023/02/27 03:25:34;;;;;;;6.10;4.40;;;-3.90;99.90;;;;;;6171282;23;20009;-85
2023/02/27 03:28:29;;;;;;;7.60;4.60;;;-3.90;99.90;;;;;;6168300;23;20112;-87
2023/02/27 03:31:25;;;;;;;8.13;4.95;;;-3.90;99.90;;;;;;6175908;22;20036;-84
2023/02/27 03:34:29;;;;;;;8.75;4.70;;;-3.90;99.90;;;;;;6168538;23;20108;-85
2023/02/27 03:37:22;;;;;;;11.35;4.68;;;-3.80;99.90;;;;;;6163461;23;20025;-84
2023/02/27 03:40:25;;;;;;;11.80;4.38;;;-3.90;99.90;;;;;;6168300;23;20037;-85
2023/02/27 03:43:44;;;;;;;9.50;5.45;;;-3.90;99.90;;;;;;6165669;23;20033;-86
2023/02/27 03:46:32;;;;;;;13.15;4.97;;;-3.90;99.90;;;;;;6168362;22;20013;-86
2023/02/27 03:49:23;;;;;;;7.82;5.18;;;-3.90;99.90;;;;;;6144013;23;20035;-84
2023/02/27 03:52:11;;;;;;;8.85;5.20;;;-3.90;99.90;;;;;;6142788;23;20030;-85
2023/02/27 03:55:07;;;;;;;8.27;4.90;;;-3.80;99.90;;;;;;6163663;23;20040;-84
2023/02/27 03:57:54;;;;;;;4.97;4.30;;;-3.80;99.90;;;;;;6165895;23;20075;-85
2023/02/27 04:00:44;;;;;;;6.43;4.45;;;-3.90;99.90;;;;;;6146752;23;20029;-85
2023/02/27 04:03:36;;;;;;;8.90;4.72;;;-3.90;99.90;;;;;;6169566;23;20053;-85
2023/02/27 04:10:08;;;;;;;7.47;5.05;;;-3.90;99.90;;;;;;6170889;23;20052;-84
2023/02/27 04:13:19;;;;;;;5.68;4.60;;;-4.00;99.90;;;;;;6144791;23;20026;-85
2023/02/27 04:16:44;;;;;;;12.50;4.90;;;-3.90;99.90;;;;;;6160511;23;20055;-83
2023/02/27 04:19:58;;;;;;;6.80;5.35;;;-3.90;99.90;;;;;;6167310;23;20021;-83
2023/02/27 04:23:03;;;;;;;9.30;4.68;;;-4.00;1.00;;;;;;6143850;23;20033;-85
2023/02/27 04:26:10;;;;;;;8.65;4.75;;;-3.90;1.00;;;;;;6128029;23;20077;-86
2023/02/27 04:29:36;;;;;;;8.30;5.20;;;-3.90;1.00;;;;;;6164015;23;20021;-87
2023/02/27 04:32:42;;;;;;;6.90;5.47;;;-3.90;1.00;;;;;;6171160;22;20029;-82
2023/02/27 04:35:42;;;;;;;7.90;5.03;;;-4.00;1.00;;;;;;6142163;23;20026;-82
2023/02/27 04:38:53;;;;;;;10.75;4.65;;;-3.90;1.00;;;;;;6163316;23;20060;-83
2023/02/27 04:41:55;;;;;;;10.30;5.68;;;-3.90;1.00;;;;;;6160575;22;20056;-85
2023/02/27 04:44:43;;;;;;;7.32;5.00;;;-3.90;1.00;;;;;;6165916;23;20056;-83
2023/02/27 04:47:37;;;;;;;10.70;5.50;;;-3.90;1.00;;;;;;6168596;22;20025;-85
2023/02/27 04:50:29;;;;;;;7.55;5.30;;;-3.90;1.00;;;;;;6168454;23;20026;-83
2023/02/27 04:53:29;;;;;;;6.60;5.05;;;-3.90;1.00;;;;;;6149245;23;20025;-85
2023/02/27 04:56:29;;;;;;;9.98;5.72;;;-3.90;1.00;;;;;;6169203;23;20025;-84
2023/02/27 04:59:24;;;;;;;5.97;5.03;;;-3.90;1.00;;;;;;6175942;22;20028;-84
2023/02/27 05:02:47;;;;;;;12.80;5.68;;;-3.90;1.00;;;;;;6173160;22;20022;-84
2023/02/27 05:05:47;;;;;;;10.43;5.63;;;-4.00;1.00;;;;;;6113556;23;20120;-85
2023/02/27 05:08:42;;;;;;;9.80;5.68;;;-4.00;1.00;;;;;;6146988;22;20032;-84
2023/02/27 05:11:49;;;;;;;7.63;4.60;;;-4.00;1.00;;;;;;6145868;23;20441;-84
2023/02/27 05:15:11;;;;;;;10.77;5.70;;;-4.00;1.00;;;;;;6143238;23;20029;-84
2023/02/27 05:18:09;;;;;;;7.88;5.65;;;-4.00;1.00;;;;;;6167869;23;20403;-85
2023/02/27 05:21:18;;;;;;;7.32;5.25;;;-4.00;1.00;;;;;;6160081;23;20032;-84
2023/02/27 05:24:24;;;;;;;7.93;5.18;;;-3.90;1.10;;;;;;6136487;23;20025;-83
2023/02/27 05:27:36;;;;;;;10.80;5.18;;;-3.90;1.30;;;;;;6155643;23;20021;-85
2023/02/27 05:30:51;;;;;;;9.77;5.67;;;-4.00;16.30;;;;;;6163426;23;20025;-82
2023/02/27 05:33:50;;;;;;;7.68;5.18;;;-4.00;21.40;;;;;;6168160;23;20021;-83
2023/02/27 05:36:46;;;;;;;10.23;6.15;;;-4.00;27.40;;;;;;6148349;23;20033;-83
2023/02/27 05:39:39;;;;;;;11.13;6.05;;;-4.00;44.00;;;;;;6160985;23;20060;-83
2023/02/27 05:42:34;;;;;;;14.35;6.00;;;-3.90;47.10;;;;;;6166852;23;20017;-84
2023/02/27 05:45:27;;;;;;;9.73;5.72;;;-3.90;55.90;;;;;;6169309;22;20058;-82
2023/02/27 05:48:22;;;;;;;15.38;6.30;;;-3.90;18.20;;;;;;6165597;23;20022;-83
2023/02/27 05:51:12;;;;;;;8.57;5.22;;;-3.90;5.30;;;;;;6158571;23;20030;-83
2023/02/27 05:54:05;;;;;;;9.80;5.57;;;-4.00;8.80;;;;;;6130110;23;20351;-85
2023/02/27 05:56:57;;;;;;;13.90;6.03;;;-4.00;1.30;;;;;;6132541;22;20203;-83
2023/02/27 06:00:04;;;;;;;8.80;4.85;;;-3.90;23.70;;;;;;6133114;23;20041;-83
2023/02/27 06:02:53;;;;;;;11.05;5.63;;;-4.00;12.40;;;;;;6159571;23;20026;-84
2023/02/27 06:05:42;;;;;;;12.35;5.95;;;-4.00;24.00;;;;;;6156386;23;20030;-84
2023/02/27 06:08:33;;;;;;;9.30;6.45;;;-4.00;59.20;;;;;;6158720;22;20089;-82
2023/02/27 06:11:23;;;;;;;8.65;5.45;;;-4.00;20.00;;;;;;6163041;23;20056;-84
2023/02/27 06:14:29;;;;;;;10.85;5.80;;;-4.00;3.00;;;;;;6123295;22;20037;-85
2023/02/27 06:17:17;;;;;;;6.95;5.85;;;-4.10;1.00;;;;;;6227750;23;20123;-84
2023/02/27 06:20:08;;;;;;;8.00;5.28;;;-4.00;3.00;;;;;;6249796;23;20034;-84
2023/02/27 06:22:55;;;;;;;11.40;6.45;;;-4.00;1.00;;;;;;6249419;23;20039;-82
2023/02/27 06:25:49;;;;;;;12.68;6.10;;;-4.00;1.00;;;;;;6228152;23;20025;-80
2023/02/27 06:28:36;;;;;;;11.75;6.18;;;-4.00;1.00;;;;;;6248568;23;20125;-80
2023/02/27 06:35:33;;;;;;;14.88;6.45;;;-3.90;1.00;;;;;;6249036;23;20008;-84
2023/02/27 06:38:25;;;;;;;9.88;6.03;;;-4.00;1.00;;;;;;6248504;22;20418;-82
2023/02/27 06:41:12;;;;;;;8.23;5.45;;;-4.00;1.00;;;;;;6224522;23;20052;-83
2023/02/27 06:44:01;;;;;;;9.40;5.75;;;-4.00;1.00;;;;;;6247423;23;20038;-82
2023/02/27 06:46:53;;;;;;;11.68;6.50;;;-4.00;1.00;;;;;;6247406;23;20035;-83
2023/02/27 06:49:54;;;;;;;10.43;5.80;;;-3.90;1.00;;;;;;6248900;22;20126;-81
2023/02/27 07:22:31;;;;;;;7.82;5.35;;;-2.60;99.90;;;;;;6173789;22;20025;-84
2023/02/27 07:25:35;;;;;;;10.32;5.13;;;-2.40;99.90;;;;;;6151158;23;20025;-84
2023/02/27 07:29:18;;;;;;;9.45;4.78;;;-2.30;99.90;;;;;;6167061;23;20055;-86
2023/02/27 07:32:12;;;;;;;5.18;4.38;;;-2.30;99.90;;;;;;6153029;23;20013;-84
2023/02/27 07:40:38;;;;;;;6.70;4.20;;;-1.80;25.50;;;;;;6054167;23;20018;-83
2023/02/27 07:44:12;;;;;;;;;;;;;;;;;;;;;
2023/02/27 07:47:32;;;;;;;9.98;4.28;;;-1.40;1.00;;;;;;5941762;24;20025;-84
2023/02/27 07:53:53;;;;;;;8.55;3.90;;;-1.00;1.00;;;;;;5944274;24;20036;-83
2023/02/27 07:57:13;;;;;;;6.15;3.88;;;-0.60;1.00;;;;;;6017582;23;20080;-83
2023/02/27 08:05:34;;;;;;;9.82;4.32;;;-0.40;99.90;;;;;;6115990;23;20109;-84
2023/02/27 08:14:29;;;;;;;7.18;4.28;;;-0.70;99.90;;;;;;6028197;23;20051;-83
2023/02/27 08:54:43;;;;;;;10.05;3.63;;;2.20;99.90;;;;;;5946861;24;20044;-83
2023/02/27 08:58:33;;;;;;;;;;;;;;;;;;;;;
2023/02/27 09:09:59;;;;;;;4.15;2.85;;;2.60;99.90;;;;;;6089332;22;20030;-82
2023/02/27 09:12:49;;;;;;;5.50;3.60;;;2.60;99.90;;;;;;6068290;23;20105;-84
2023/02/27 09:15:41;;;;;;;8.40;3.30;;;2.50;99.90;;;;;;6075693;23;20026;-84
2023/02/27 09:18:59;;;;;;;;;;;;;;;;;;;;;
2023/02/27 09:22:07;;;;;;;7.00;3.63;;;2.60;99.90;;;;;;6093267;23;20041;-86
2023/02/27 09:24:57;;;;;;;8.07;3.33;;;2.90;99.90;;;;;;6073284;23;20036;-82
2023/02/27 09:33:31;;;;;;;;;;;;;;;;;;;;;
2023/02/27 09:36:41;;;;;;;7.55;3.10;;;4.10;99.90;;;;;;6095774;23;20092;-86
2023/02/27 09:39:47;;;;;;;5.93;2.80;;;3.90;99.90;;;;;;6042544;23;20023;-84
2023/02/27 09:43:16;;;;;;;6.60;3.20;;;4.10;99.90;;;;;;6083682;23;20022;-83
2023/02/27 09:46:33;;;;;;;6.15;3.05;;;4.50;99.90;;;;;;6073381;23;20109;-87
2023/02/27 09:50:16;;;;;;;7.97;3.05;;;4.60;99.90;;;;;;6124744;23;20021;-87
2023/02/27 09:53:23;;;;;;;4.05;2.58;;;5.30;99.90;;;;;;6036612;23;20032;-85
2023/02/27 09:56:34;;;;;;;6.15;2.60;;;5.40;99.90;;;;;;6035724;23;20362;-83
2023/02/27 10:00:35;;;;;;;4.70;2.63;;;5.60;99.90;;;;;;6070190;23;20317;-86
2023/02/27 10:04:02;;;;;;;4.03;2.60;;;5.40;97.70;;;;;;6112093;23;20075;-83
2023/02/27 10:07:03;;;;;;;4.50;2.30;;;5.60;95.20;;;;;;6126570;23;20026;-83
2023/02/27 10:10:42;;;;;;;;;;;;;;;;;;;;;
2023/02/27 10:13:52;;;;;;;5.65;2.55;;;5.00;77.60;;;;;;6126533;23;20026;-84
2023/02/27 10:16:45;;;;;;;4.15;2.78;;;4.80;72.40;;;;;;6139523;23;20022;-82
2023/02/27 10:19:43;;;;;;;4.65;2.47;;;4.90;72.30;;;;;;6140264;22;20026;-81
2023/02/27 10:25:14;;;;;;;3.45;2.58;;;6.50;70.50;;;;;;6118334;22;20101;-84
2023/02/27 10:28:32;;;;;;;3.28;2.50;;;6.60;61.40;;;;;;6178863;23;20113;-85
2023/02/27 10:31:34;;;;;;;3.72;2.33;;;6.20;53.90;;;;;;6185696;23;20034;-83
2023/02/27 10:34:26;;;;;;;5.03;2.75;;;6.20;47.40;;;;;;6108320;23;20685;-83
2023/02/27 10:37:22;;;;;;;5.88;2.95;;;5.60;38.40;;;;;;6099718;23;20054;-82
2023/02/27 10:40:19;;;;;;;3.65;2.42;;;5.70;44.20;;;;;;6180513;23;20045;-85
2023/02/27 10:43:08;;;;;;;4.25;2.20;;;5.90;40.30;;;;;;6156280;23;20026;-83
2023/02/27 10:49:59;;;;;;;5.20;2.50;;;5.00;37.20;;;;;;6098775;23;20078;-84
2023/02/27 10:53:16;;;;;;;3.42;2.40;;;4.20;27.90;;;;;;6158803;23;20299;-82
2023/02/27 10:56:17;;;;;;;2.45;2.25;;;4.10;33.30;;;;;;6156760;23;20023;-85
2023/02/27 11:03:35;;;;;;;4.90;2.90;;;3.90;30.20;;;;;;6093648;23;20041;-86
2023/02/27 11:07:20;;;;;;;4.85;2.65;;;2.80;25.60;;;;;;6175807;23;20030;-87
2023/02/27 11:10:52;;;;;;;;;;;;;;;;;;;;;
2023/02/27 11:14:27;;;;;;;3.05;2.28;;;2.30;27.70;;;;;;6093835;23;20033;-85
2023/02/27 11:17:46;;;;;;;4.57;2.50;;;2.70;27.70;;;;;;6142113;23;20025;-84
2023/02/27 11:21:31;;;;;;;3.83;2.50;;;4.20;34.60;;;;;;6098996;23;20049;-87
2023/02/27 11:24:34;;;;;;;5.45;2.88;;;3.90;24.80;;;;;;6097513;23;20041;-84
2023/02/27 11:31:50;;;;;;;7.75;2.92;;;3.60;23.40;;;;;;6123918;23;20027;-86
2023/02/27 11:35:40;;;;;;;3.30;3.00;;;3.40;25.60;;;;;;6115254;23;20037;-85
2023/02/27 11:38:33;;;;;;;3.55;2.45;;;2.50;19.50;;;;;;6123926;23;20096;-83
2023/02/27 11:41:43;;;;;;;;;;;;;;;;;;;;;
2023/02/27 11:44:32;;;;;;;6.00;2.97;;;2.40;23.10;;;;;;6097775;23;20282;-83
2023/02/27 11:47:40;;;;;;;7.85;3.25;;;2.40;21.80;;;;;;6093571;23;20034;-82
2023/02/27 11:55:30;;;;;;;;;;;;;;;;;;;;;
2023/02/27 12:03:19;;;;;;;4.00;2.65;;;3.30;32.00;;;;;;5961313;24;20030;-83
2023/02/27 12:06:39;;;;;;;5.28;2.60;;;4.60;29.40;;;;;;6046730;23;20030;-84
2023/02/27 12:10:22;;;;;;;15.45;6.70;;;5.90;30.90;;;;;;6066739;23;20027;-83
2023/02/27 12:13:44;;;;;;;8.15;5.35;;;7.50;32.90;;;;;;6065077;23;20094;-87
2023/02/27 12:16:49;;;;;;;5.65;2.92;;;7.60;21.40;;;;;;6070702;23;20027;-84
2023/02/27 12:20:03;;;;;;;3.53;2.80;;;5.50;14.20;;;;;;6093152;23;20040;-85
2023/02/27 12:23:18;;;;;;;;;;;;;;;;;;;;;
2023/02/27 12:35:10;;;;;;;4.07;2.28;;;6.10;15.70;;;;;;6151941;22;20104;-84
2023/02/27 12:42:33;;;;;;;6.68;2.50;;;6.40;17.10;;;;;;6146374;23;20018;-87
2023/02/27 12:45:59;;;;;;;4.95;2.60;;;6.10;9.70;;;;;;6132119;23;20061;-85
2023/02/27 12:48:50;;;;;;;5.35;2.60;;;5.00;8.40;;;;;;6160849;23;20021;-83
2023/02/27 12:56:23;;;;;;;4.13;2.63;;;3.80;7.20;;;;;;5954086;24;20029;-83
2023/02/27 13:00:10;;;;;;;5.40;2.88;;;3.10;1.10;;;;;;5973152;23;20027;-84
2023/02/27 13:08:27;;;;;;;;;;;;;;;;;;;;;
2023/02/27 13:16:50;;;;;;;;;;;;;;;;;;;;;
2023/02/27 13:34:14;;;;;;;;;;;;;;;;;;;;;
2023/02/27 15:26:06;;;;;;;5.55;2.85;;;1.30;14.60;;;;;;6113666;22;20246;-89
2023/02/27 15:29:25;;;;;;;2.95;2.42;;;1.20;14.70;;;;;;6019873;23;20439;-90
2023/02/27 15:32:35;;;;;;;6.85;2.50;;;1.20;14.00;;;;;;6025653;23;20031;-89
2023/02/27 15:35:43;;;;;;;4.35;2.88;;;1.10;14.90;;;;;;6134831;23;20321;-91
2023/02/27 15:38:33;;;;;;;7.88;2.67;;;1.00;15.40;;;;;;6133898;23;20055;-87
2023/02/27 15:41:21;;;;;;;6.82;2.47;;;1.10;15.30;;;;;;6132205;23;20032;-88
2023/02/27 15:44:12;;;;;;;4.43;2.67;;;1.00;15.20;;;;;;6132110;23;20021;-94
2023/02/27 15:47:01;;;;;;;4.60;2.53;;;1.00;15.50;;;;;;6130359;23;20026;-88
2023/02/27 15:50:00;;;;;;;4.72;3.03;;;1.00;18.20;;;;;;6134502;23;20029;-89
2023/02/27 15:53:01;;;;;;;5.07;2.92;;;0.90;18.30;;;;;;6137342;23;20029;-94
2023/02/27 15:55:59;;;;;;;3.83;2.15;;;0.90;19.40;;;;;;6133226;23;20134;-90
2023/02/27 15:58:49;;;;;;;4.13;2.72;;;0.80;18.40;;;;;;6152841;23;20033;-91
2023/02/27 16:01:37;;;;;;;3.38;2.50;;;0.80;19.10;;;;;;6132950;23;20032;-89
2023/02/27 16:04:25;;;;;;;5.65;2.67;;;0.80;21.00;;;;;;6131008;23;20026;-89
2023/02/27 16:07:23;;;;;;;4.32;2.10;;;0.70;20.70;;;;;;6133628;23;20026;-90
2023/02/27 16:10:41;;;;;;;5.88;3.20;;;0.60;19.90;;;;;;6133006;23;20026;-88
2023/02/27 16:13:39;;;;;;;4.40;2.67;;;0.50;20.50;;;;;;6133233;23;20044;-88
2023/02/27 16:16:37;;;;;;;3.53;2.58;;;0.50;22.70;;;;;;6133100;23;20246;-89
2023/02/27 16:19:39;;;;;;;4.05;2.60;;;0.50;25.00;;;;;;6136114;23;20025;-87
2023/02/27 16:22:29;;;;;;;4.40;2.38;;;0.50;24.90;;;;;;6132423;23;20021;-93
2023/02/27 16:25:19;;;;;;;4.72;2.58;;;0.40;20.40;;;;;;6131985;23;20032;-90
2023/02/27 16:28:13;;;;;;;4.95;2.47;;;0.40;20.50;;;;;;6139095;23;20022;-90
2023/02/27 16:31:02;;;;;;;3.25;2.40;;;0.30;23.60;;;;;;6160308;23;20116;-87
2023/02/27 16:33:51;;;;;;;3.40;2.40;;;0.30;22.60;;;;;;6134219;23;20029;-87
2023/02/27 16:36:52;;;;;;;5.55;2.40;;;0.20;22.50;;;;;;6131250;23;20032;-91
2023/02/27 16:39:39;;;;;;;5.03;2.50;;;0.20;21.90;;;;;;6130399;23;20033;-88
2023/02/27 16:42:27;;;;;;;9.73;2.17;;;0.20;22.30;;;;;;6130737;23;20022;-90
2023/02/27 16:45:21;;;;;;;5.50;2.42;;;0.20;19.50;;;;;;6152759;23;20036;-87
2023/02/27 16:48:13;;;;;;;5.15;2.72;;;0.10;20.80;;;;;;6129590;23;20393;-87
2023/02/27 16:51:01;;;;;;;4.65;2.78;;;0.10;23.60;;;;;;6152567;22;20042;-91
2023/02/27 16:53:53;;;;;;;5.05;2.75;;;0.10;25.40;;;;;;6131422;23;20433;-92
2023/02/27 16:56:41;;;;;;;4.75;2.83;;;0.10;24.60;;;;;;6159888;23;20030;-89
2023/02/27 16:59:32;;;;;;;5.47;3.08;;;0.00;26.10;;;;;;6136349;23;20029;-91
2023/02/27 17:02:22;;;;;;;6.28;2.47;;;0.00;25.70;;;;;;6153645;22;20040;-87
2023/02/27 17:05:10;;;;;;;3.58;2.28;;;0.00;26.80;;;;;;6158561;23;20052;-89
2023/02/27 17:08:07;;;;;;;6.25;2.10;;;0.00;23.50;;;;;;6158498;23;20025;-87
2023/02/27 17:10:54;;;;;;;3.03;2.15;;;-0.10;21.50;;;;;;6133645;23;20029;-87
2023/02/27 17:13:42;;;;;;;2.65;2.25;;;-0.10;20.90;;;;;;6151774;23;20026;-89
2023/02/27 17:16:31;;;;;;;2.63;2.17;;;-0.10;19.60;;;;;;6154844;23;20108;-89
2023/02/27 17:19:21;;;;;;;6.10;2.45;;;-0.10;18.70;;;;;;6114189;23;20429;-89
2023/02/27 17:22:08;;;;;;;3.40;2.08;;;-0.20;20.60;;;;;;6153664;23;20026;-90
2023/02/27 17:24:56;;;;;;;3.00;2.60;;;-0.10;19.70;;;;;;6113246;23;20029;-89
2023/02/27 17:27:43;;;;;;;3.75;2.63;;;-0.10;21.30;;;;;;6135608;23;20075;-89
2023/02/27 17:30:32;;;;;;;4.85;2.75;;;-0.20;23.60;;;;;;6152388;23;20425;-88
2023/02/27 17:33:22;;;;;;;5.75;2.90;;;-0.20;24.20;;;;;;6133397;23;20033;-88
2023/02/27 17:36:12;;;;;;;4.70;2.20;;;-0.20;23.30;;;;;;6152765;23;20026;-92
2023/02/27 17:39:00;;;;;;;4.75;2.05;;;-0.20;21.80;;;;;;6131127;23;20026;-91
2023/02/27 17:41:53;;;;;;;4.68;2.50;;;-0.30;18.10;;;;;;6153073;23;20134;-89
2023/02/27 17:44:41;;;;;;;6.60;2.42;;;-0.20;20.40;;;;;;6133588;23;20025;-88
2023/02/27 17:47:31;;;;;;;14.40;2.63;;;-0.30;21.40;;;;;;6138443;23;20030;-89
2023/02/27 17:50:19;;;;;;;3.67;2.20;;;-0.30;20.00;;;;;;6137097;23;20036;-86
2023/02/27 17:53:08;;;;;;;3.42;2.20;;;-0.30;20.60;;;;;;6163361;23;20285;-87
2023/02/27 17:55:58;;;;;;;7.40;2.42;;;-0.40;21.20;;;;;;6135333;23;20060;-86
2023/02/27 17:58:52;;;;;;;3.10;2.47;;;-0.40;20.40;;;;;;6137438;23;20029;-88
2023/02/27 18:01:43;;;;;;;3.78;2.50;;;-0.40;19.10;;;;;;6117828;23;20029;-88
2023/02/27 18:04:31;;;;;;;4.05;2.60;;;-0.40;18.70;;;;;;6134247;23;20055;-87
2023/02/27 18:07:18;;;;;;;6.35;3.28;;;-0.50;17.70;;;;;;6156379;23;20036;-90
2023/02/27 18:10:12;;;;;;;5.43;2.60;;;-0.50;16.30;;;;;;6117094;23;20040;-88
2023/02/27 18:13:00;;;;;;;7.50;2.72;;;-0.50;19.10;;;;;;6130984;23;20059;-89
2023/02/27 18:15:50;;;;;;;5.28;2.33;;;-0.50;18.80;;;;;;6155090;23;20034;-88
2023/02/27 18:18:39;;;;;;;4.72;2.70;;;-0.50;19.70;;;;;;6163169;22;20029;-89
2023/02/27 18:21:27;;;;;;;5.38;3.15;;;-0.50;20.00;;;;;;6146049;23;20097;-88
2023/02/27 18:24:15;;;;;;;3.25;2.28;;;-0.50;20.50;;;;;;6145128;23;20022;-89
2023/02/27 18:27:05;;;;;;;4.95;3.03;;;-0.60;20.10;;;;;;6166988;23;20053;-90
2023/02/27 18:29:56;;;;;;;4.07;2.83;;;-0.70;21.90;;;;;;6148506;23;20044;-92
2023/02/27 18:32:46;;;;;;;4.20;2.53;;;-0.70;22.80;;;;;;6153456;23;20033;-87
2023/02/27 18:35:38;;;;;;;4.78;2.83;;;-0.80;20.30;;;;;;6156019;22;20106;-85
2023/02/27 18:38:25;;;;;;;4.00;2.58;;;-0.80;24.60;;;;;;6173278;22;20010;-86
2023/02/27 18:41:13;;;;;;;8.50;3.17;;;-0.80;24.00;;;;;;6171761;23;20022;-87
2023/02/27 18:44:00;;;;;;;5.38;2.65;;;-0.80;24.50;;;;;;6175548;22;20043;-86
2023/02/27 18:46:47;;;;;;;7.00;3.38;;;-0.90;25.50;;;;;;6155639;22;20065;-86
2023/02/27 18:49:35;;;;;;;4.38;2.60;;;-0.90;26.00;;;;;;6154246;22;20044;-87
2023/02/27 18:52:23;;;;;;;5.65;2.92;;;-1.00;25.80;;;;;;6135281;22;20039;-87
2023/02/27 18:55:10;;;;;;;6.45;3.22;;;-1.00;26.80;;;;;;6150555;23;20032;-90
2023/02/27 18:57:57;;;;;;;4.88;2.95;;;-0.90;27.00;;;;;;6169150;23;20095;-87
2023/02/27 19:00:45;;;;;;;4.28;2.85;;;-0.90;27.90;;;;;;6150605;23;20033;-89
2023/02/27 19:03:34;;;;;;;8.40;4.38;;;-0.90;28.60;;;;;;6151642;23;20025;-87
2023/02/27 19:06:24;;;;;;;6.15;3.45;;;-0.90;26.90;;;;;;6143231;23;20054;-92
2023/02/27 19:09:16;;;;;;;6.00;3.80;;;-0.90;28.60;;;;;;6139797;23;20121;-88
2023/02/27 19:12:11;;;;;;;5.30;3.22;;;-0.80;27.50;;;;;;6160904;23;20028;-89
2023/02/27 19:15:00;;;;;;;8.15;3.72;;;-0.80;26.90;;;;;;6138257;23;20022;-88
2023/02/27 19:17:48;;;;;;;8.75;4.32;;;-0.80;26.60;;;;;;6134543;23;20028;-88
2023/02/27 19:20:36;;;;;;;5.47;3.47;;;-0.80;26.40;;;;;;6133800;23;20026;-90
2023/02/27 19:23:24;;;;;;;5.68;3.55;;;-0.70;26.40;;;;;;6133757;23;20119;-90
2023/02/27 19:26:14;;;;;;;7.75;3.38;;;-0.80;27.20;;;;;;6135503;23;20037;-88
2023/02/27 19:29:06;;;;;;;8.27;3.80;;;-0.80;27.90;;;;;;6134548;23;20045;-90
2023/02/27 19:31:56;;;;;;;3.58;3.03;;;-0.80;28.50;;;;;;6135184;23;20033;-89
2023/02/27 19:34:44;;;;;;;5.25;3.25;;;-0.90;27.80;;;;;;6167909;23;20022;-88
2023/02/27 19:37:34;;;;;;;5.47;3.15;;;-0.90;28.80;;;;;;6141857;23;20026;-89
2023/02/27 19:40:24;;;;;;;5.70;3.30;;;-0.90;29.20;;;;;;6140726;23;20025;-89
2023/02/27 19:43:15;;;;;;;9.27;3.50;;;-1.00;29.50;;;;;;6158204;23;20109;-87
2023/02/27 19:46:09;;;;;;;5.40;3.50;;;-1.10;30.30;;;;;;6158452;23;20029;-88
2023/02/27 19:49:00;;;;;;;7.05;3.33;;;-1.10;32.00;;;;;;6134398;23;20101;-90
2023/02/27 19:51:49;;;;;;;4.55;3.08;;;-1.20;33.00;;;;;;6133495;23;20029;-87
2023/02/27 19:54:37;;;;;;;5.40;3.65;;;-1.20;34.00;;;;;;6155571;23;20079;-92
2023/02/27 19:57:25;;;;;;;5.95;3.53;;;-1.20;35.10;;;;;;6159827;22;20335;-92
2023/02/27 20:00:16;;;;;;;5.82;3.78;;;-1.20;35.40;;;;;;6137609;23;20121;-89
2023/02/27 20:03:05;;;;;;;5.07;3.38;;;-1.30;36.80;;;;;;6162188;23;20062;-89
2023/02/27 20:05:52;;;;;;;8.85;3.75;;;-1.30;35.80;;;;;;6137885;23;20056;-91
2023/02/27 20:08:41;;;;;;;4.85;3.70;;;-1.40;40.00;;;;;;6158694;23;20021;-90
2023/02/27 20:11:31;;;;;;;4.82;3.38;;;-1.40;42.00;;;;;;6134243;23;20029;-91
2023/02/27 20:14:21;;;;;;;5.03;3.83;;;-1.40;44.70;;;;;;6134633;23;20040;-88
2023/02/27 20:17:10;;;;;;;3.72;3.22;;;-1.40;44.80;;;;;;6115300;23;20100;-89
2023/02/27 20:19:58;;;;;;;7.53;3.47;;;-1.40;48.10;;;;;;6136404;23;20372;-88
2023/02/27 20:22:46;;;;;;;6.63;3.55;;;-1.40;48.40;;;;;;6163254;22;20021;-91
2023/02/27 20:25:40;;;;;;;6.50;3.30;;;-1.40;50.00;;;;;;6161463;23;20393;-90
2023/02/27 20:28:30;;;;;;;5.20;3.85;;;-1.40;49.80;;;;;;6142457;23;20136;-91
2023/02/27 20:31:21;;;;;;;6.05;3.95;;;-1.30;49.40;;;;;;6143083;23;20022;-89
2023/02/27 20:34:20;;;;;;;5.82;3.92;;;-1.40;50.00;;;;;;6166839;23;20014;-89